Time;durP1;ratioP1;P1;durP2;ratioP2;P2;SDS_P1;SDS_P2;PMS_P1;PMS_P2;Temp;Humidity;BMP_temperature;BMP_pressure;BME280_temperature;BME280_humidity;BME280_pressure;Samples;Min_cycle;Max_cycle;Signal;HPM_P1;HPM_P2
2022/12/01 00:02:05;;;;;;;46.30;42.83;;;1.20;99.90;;;;;;4228919;28;20103;-86
2022/12/01 00:04:25;;;;;;;47.83;43.53;;;1.10;99.90;;;;;;4228850;28;20050;-85
2022/12/01 00:06:45;;;;;;;50.95;46.13;;;1.10;99.90;;;;;;4224416;28;20050;-85
2022/12/01 00:11:43;;;;;;;43.70;40.08;;;1.00;99.90;;;;;;4230700;28;20089;-85
2022/12/01 00:14:04;;;;;;;39.10;35.95;;;0.90;99.90;;;;;;4231236;28;20096;-85
2022/12/01 00:16:24;;;;;;;39.60;36.40;;;1.00;99.90;;;;;;4227875;28;20362;-85
2022/12/01 00:18:44;;;;;;;38.33;35.60;;;1.10;99.90;;;;;;4215607;28;20056;-85
2022/12/01 00:21:05;;;;;;;35.08;32.78;;;1.10;99.90;;;;;;4230360;28;20070;-85
2022/12/01 00:23:25;;;;;;;34.13;32.05;;;1.30;99.90;;;;;;4217915;28;20317;-85
2022/12/01 00:25:45;;;;;;;35.28;33.13;;;1.30;99.90;;;;;;4220114;28;20052;-86
2022/12/01 00:28:05;;;;;;;30.38;27.98;;;1.20;99.90;;;;;;4230815;28;20042;-85
2022/12/01 00:30:25;;;;;;;32.42;30.17;;;1.20;99.90;;;;;;4224642;28;20089;-86
2022/12/01 00:32:45;;;;;;;33.85;31.40;;;1.20;99.90;;;;;;4233925;28;20219;-85
2022/12/01 00:35:05;;;;;;;33.30;30.95;;;1.20;99.90;;;;;;4234578;28;20132;-86
2022/12/01 00:37:25;;;;;;;35.92;33.78;;;1.20;99.90;;;;;;4232163;28;20227;-86
2022/12/01 00:39:45;;;;;;;32.35;30.15;;;1.20;99.90;;;;;;4232521;28;20051;-86
2022/12/01 00:42:05;;;;;;;28.13;26.30;;;1.30;99.90;;;;;;4232610;28;20055;-86
2022/12/01 00:44:32;;;;;;;21.35;19.85;;;1.20;99.90;;;;;;4225489;28;20062;-85
2022/12/01 00:46:51;;;;;;;19.45;18.33;;;1.20;99.90;;;;;;4233421;28;20046;-85
2022/12/01 00:49:14;;;;;;;19.00;18.08;;;1.30;99.90;;;;;;4217186;28;20066;-86
2022/12/01 00:51:34;;;;;;;;;;;1.40;99.90;;;;;;4233563;28;20051;-86
2022/12/01 00:53:54;;;;;;;17.17;16.15;;;1.50;99.90;;;;;;4221281;28;20181;-86
2022/12/01 00:56:13;;;;;;;15.13;14.07;;;1.40;99.90;;;;;;4219659;28;20051;-86
2022/12/01 00:58:33;;;;;;;15.63;14.57;;;1.50;99.90;;;;;;4224158;28;20235;-86
2022/12/01 01:00:58;;;;;;;14.63;13.68;;;1.50;99.90;;;;;;4231317;28;20043;-86
2022/12/01 01:03:18;;;;;;;14.93;14.05;;;1.70;99.90;;;;;;4230787;28;20073;-86
2022/12/01 01:05:39;;;;;;;11.50;10.93;;;1.70;99.90;;;;;;4234864;28;20089;-86
2022/12/01 01:07:59;;;;;;;10.75;10.25;;;1.90;99.90;;;;;;4217677;28;20162;-86
2022/12/01 01:10:19;;;;;;;12.57;11.90;;;2.00;99.90;;;;;;4234749;28;20046;-86
2022/12/01 01:12:39;;;;;;;14.05;13.05;;;2.10;99.90;;;;;;4217880;28;20047;-86
2022/12/01 01:14:58;;;;;;;14.45;13.52;;;2.10;99.90;;;;;;4217902;28;20047;-86
2022/12/01 01:17:18;;;;;;;17.02;15.55;;;2.00;99.90;;;;;;4222299;28;20055;-86
2022/12/01 01:19:38;;;;;;;15.88;14.77;;;1.90;99.90;;;;;;4232829;28;20062;-86
2022/12/01 01:21:58;;;;;;;16.85;15.82;;;1.80;99.90;;;;;;4215703;28;20067;-86
2022/12/01 01:24:17;;;;;;;24.30;22.80;;;1.70;99.90;;;;;;4232026;28;20046;-86
2022/12/01 01:26:37;;;;;;;24.88;23.67;;;1.50;99.90;;;;;;4231188;28;20278;-86
2022/12/01 01:28:59;;;;;;;27.48;25.73;;;1.50;99.90;;;;;;4229400;28;20043;-86
2022/12/01 01:31:22;;;;;;;29.80;27.58;;;1.50;99.90;;;;;;4215060;28;20059;-86
2022/12/01 01:33:42;;;;;;;31.60;29.30;;;1.40;99.90;;;;;;4230225;28;20370;-85
2022/12/01 01:36:03;;;;;;;28.63;26.75;;;1.30;99.90;;;;;;4216664;28;20102;-85
2022/12/01 01:38:22;;;;;;;31.60;29.15;;;1.30;99.90;;;;;;4230954;28;20043;-85
2022/12/01 01:40:44;;;;;;;26.38;24.35;;;1.30;99.90;;;;;;4229031;28;20361;-86
2022/12/01 01:43:13;;;;;;;27.95;26.00;;;1.30;99.90;;;;;;4220698;28;20051;-86
2022/12/01 01:45:33;;;;;;;27.40;25.58;;;1.30;99.90;;;;;;4215373;28;20401;-86
2022/12/01 01:47:54;;;;;;;26.08;24.35;;;1.40;99.90;;;;;;4228169;28;20051;-85
2022/12/01 01:50:16;;;;;;;26.98;25.23;;;1.30;99.90;;;;;;4227016;28;20063;-85
2022/12/01 01:52:44;;;;;;;27.95;25.98;;;1.40;99.90;;;;;;4231099;28;20111;-85
2022/12/01 01:55:05;;;;;;;29.95;27.70;;;1.40;99.90;;;;;;4215355;28;20041;-85
2022/12/01 01:57:31;;;;;;;29.60;27.65;;;1.30;99.90;;;;;;4214627;28;20198;-86
2022/12/01 02:00:09;;;;;;;32.63;30.27;;;1.30;99.90;;;;;;4215177;28;20051;-86
2022/12/01 02:02:29;;;;;;;31.08;29.23;;;1.20;99.90;;;;;;4233524;28;20140;-85
2022/12/01 02:04:55;;;;;;;33.08;31.13;;;1.20;99.90;;;;;;4231357;28;20080;-85
2022/12/01 02:07:17;;;;;;;33.33;31.20;;;1.10;99.90;;;;;;4213855;28;20039;-85
2022/12/01 02:09:38;;;;;;;28.17;26.67;;;1.10;99.90;;;;;;4217691;28;20044;-85
2022/12/01 02:12:40;;;;;;;30.58;28.67;;;1.00;99.90;;;;;;4214643;28;20063;-85
2022/12/01 02:15:00;;;;;;;27.92;26.60;;;1.00;99.90;;;;;;4141441;28;20045;-85
2022/12/01 02:17:50;;;;;;;30.85;29.17;;;0.90;99.90;;;;;;4140365;28;20274;-85
2022/12/01 02:20:27;;;;;;;27.08;25.95;;;0.90;99.90;;;;;;4142301;28;20622;-86
2022/12/01 02:22:53;;;;;;;30.38;28.98;;;0.80;99.90;;;;;;4133614;28;20085;-85
2022/12/01 02:25:45;;;;;;;29.35;28.02;;;0.80;99.90;;;;;;4139603;28;20057;-85
2022/12/01 02:28:05;;;;;;;29.98;28.70;;;0.80;99.90;;;;;;4127269;28;20050;-86
2022/12/01 02:30:46;;;;;;;31.88;30.50;;;0.80;99.90;;;;;;4130662;28;20053;-86
2022/12/01 02:33:13;;;;;;;29.13;27.67;;;0.80;99.90;;;;;;4135938;28;20065;-85
2022/12/01 02:36:00;;;;;;;31.38;29.90;;;0.80;99.90;;;;;;4135201;28;20041;-86
2022/12/01 02:38:34;;;;;;;30.02;28.52;;;0.90;99.90;;;;;;4138114;28;20360;-86
2022/12/01 02:41:12;;;;;;;31.52;30.05;;;0.80;99.90;;;;;;4138739;28;20142;-86
2022/12/01 02:43:42;;;;;;;28.95;27.73;;;0.70;99.90;;;;;;4138991;28;20045;-85
2022/12/01 02:46:26;;;;;;;31.45;29.95;;;0.70;99.90;;;;;;4139542;28;20057;-85
2022/12/01 02:48:50;;;;;;;32.45;30.90;;;0.60;99.90;;;;;;4181476;28;20073;-85
2022/12/01 02:51:15;;;;;;;32.97;31.58;;;0.70;99.90;;;;;;4229993;28;20235;-85
2022/12/01 02:53:35;;;;;;;34.63;33.22;;;0.70;99.90;;;;;;4231661;28;20062;-85
2022/12/01 02:55:57;;;;;;;33.67;32.28;;;0.70;99.90;;;;;;4232064;28;20047;-85
2022/12/01 02:58:17;;;;;;;34.08;32.70;;;0.70;99.90;;;;;;4218347;28;20300;-85
2022/12/01 03:00:38;;;;;;;35.38;33.85;;;0.70;99.90;;;;;;4229965;28;20410;-86
2022/12/01 03:03:00;;;;;;;32.20;30.80;;;0.60;99.90;;;;;;4220325;28;20108;-85
2022/12/01 03:05:35;;;;;;;34.97;33.15;;;0.70;99.90;;;;;;4214332;28;20087;-85
2022/12/01 03:08:00;;;;;;;33.85;32.45;;;0.70;99.90;;;;;;4214371;28;20090;-85
2022/12/01 03:10:26;;;;;;;31.42;30.02;;;0.80;99.90;;;;;;4214892;28;20042;-85
2022/12/01 03:13:12;;;;;;;33.45;32.03;;;0.80;99.90;;;;;;4229803;28;20074;-85
2022/12/01 03:15:32;;;;;;;33.78;32.47;;;0.70;99.90;;;;;;4150316;28;20178;-86
2022/12/01 03:18:05;;;;;;;33.00;31.45;;;0.70;99.90;;;;;;4151187;28;20045;-85
2022/12/01 03:20:39;;;;;;;32.00;30.80;;;0.70;99.90;;;;;;4148747;28;20054;-86
2022/12/01 03:23:08;;;;;;;32.63;31.48;;;0.70;99.90;;;;;;4146635;28;20057;-85
2022/12/01 03:25:29;;;;;;;31.05;29.75;;;0.70;99.90;;;;;;4148895;28;20084;-85
2022/12/01 03:27:55;;;;;;;29.35;28.33;;;0.70;99.90;;;;;;4150737;28;20045;-85
2022/12/01 03:30:36;;;;;;;32.53;31.23;;;0.70;99.90;;;;;;4162093;28;20045;-86
2022/12/01 03:33:03;;;;;;;30.45;29.25;;;0.60;99.90;;;;;;4161171;28;20457;-85
2022/12/01 03:35:46;;;;;;;28.85;27.85;;;0.60;99.90;;;;;;4162922;28;20044;-85
2022/12/01 03:38:20;;;;;;;29.30;27.88;;;0.60;99.90;;;;;;4161765;28;20051;-86
2022/12/01 03:40:40;;;;;;;31.77;30.58;;;0.50;99.90;;;;;;4147969;28;20049;-85
2022/12/01 03:43:06;;;;;;;32.38;30.88;;;0.50;99.90;;;;;;4162047;28;20287;-85
2022/12/01 03:45:45;;;;;;;35.63;34.03;;;0.50;99.90;;;;;;4161375;28;20121;-85
2022/12/01 03:48:06;;;;;;;35.22;33.50;;;0.30;99.90;;;;;;4162319;28;20178;-85
2022/12/01 03:50:54;;;;;;;34.88;33.30;;;0.20;99.90;;;;;;4149064;28;20119;-85
2022/12/01 03:53:20;;;;;;;34.67;32.97;;;0.10;99.90;;;;;;4212396;28;20093;-86
2022/12/01 03:55:44;;;;;;;33.30;31.83;;;0.10;99.90;;;;;;4227237;28;20043;-85
2022/12/01 03:58:07;;;;;;;37.40;35.60;;;0.00;99.90;;;;;;4215476;28;20107;-85
2022/12/01 04:00:27;;;;;;;37.15;35.50;;;0.00;99.90;;;;;;4214336;28;20094;-85
2022/12/01 04:02:47;;;;;;;32.10;30.63;;;-0.10;99.90;;;;;;4217414;28;20393;-85
2022/12/01 04:05:10;;;;;;;33.25;32.00;;;0.00;99.90;;;;;;4235355;28;20065;-85
2022/12/01 04:07:30;;;;;;;34.72;33.42;;;0.00;99.90;;;;;;4231071;28;20066;-85
2022/12/01 04:09:50;;;;;;;32.83;31.52;;;0.00;99.90;;;;;;4233749;28;20059;-85
2022/12/01 04:12:33;;;;;;;30.52;29.23;;;-0.10;99.90;;;;;;4230420;28;20047;-85
2022/12/01 04:14:53;;;;;;;33.17;31.90;;;-0.10;99.90;;;;;;4219469;28;20040;-85
2022/12/01 04:17:13;;;;;;;35.47;33.95;;;-0.10;99.90;;;;;;4232135;28;20043;-85
2022/12/01 04:19:33;;;;;;;35.95;34.45;;;-0.20;99.90;;;;;;4231654;28;20047;-85
2022/12/01 04:21:53;;;;;;;34.25;32.80;;;-0.20;99.90;;;;;;4231921;28;20103;-85
2022/12/01 04:24:14;;;;;;;33.55;32.13;;;-0.10;99.90;;;;;;4224289;28;20051;-85
2022/12/01 04:26:36;;;;;;;37.45;35.65;;;-0.10;99.90;;;;;;4223663;28;20082;-85
2022/12/01 04:28:55;;;;;;;36.05;34.65;;;-0.20;99.90;;;;;;4218245;28;20064;-85
2022/12/01 04:31:15;;;;;;;33.65;32.40;;;-0.20;99.90;;;;;;4215802;28;20056;-86
2022/12/01 04:33:35;;;;;;;40.67;38.78;;;-0.30;99.90;;;;;;4232326;28;20050;-86
2022/12/01 04:35:59;;;;;;;35.40;33.45;;;-0.40;99.90;;;;;;4220420;28;20096;-86
2022/12/01 04:38:19;;;;;;;38.63;36.92;;;-0.40;99.90;;;;;;4218652;28;20051;-85
2022/12/01 04:40:38;;;;;;;39.65;37.75;;;-0.40;99.90;;;;;;4231592;28;20061;-86
2022/12/01 04:42:58;;;;;;;37.15;35.28;;;-0.50;99.90;;;;;;4218538;28;20102;-85
2022/12/01 04:45:18;;;;;;;38.25;36.63;;;-0.50;99.90;;;;;;4231620;28;20051;-85
2022/12/01 04:47:37;;;;;;;39.03;37.35;;;-0.40;99.90;;;;;;4217939;28;20043;-85
2022/12/01 04:49:57;;;;;;;36.28;34.75;;;-0.40;99.90;;;;;;4230513;28;20043;-85
2022/12/01 04:52:17;;;;;;;39.80;37.90;;;-0.30;99.90;;;;;;4224951;28;20255;-85
2022/12/01 04:54:36;;;;;;;36.83;35.33;;;-0.40;99.90;;;;;;4224684;28;20059;-86
2022/12/01 04:56:56;;;;;;;38.53;36.97;;;-0.40;99.90;;;;;;4230845;28;20047;-85
2022/12/01 04:59:16;;;;;;;36.40;35.00;;;-0.30;99.90;;;;;;4232429;28;20361;-86
2022/12/01 05:01:36;;;;;;;36.97;35.65;;;-0.40;99.90;;;;;;4234347;28;20098;-86
2022/12/01 05:03:56;;;;;;;35.75;34.45;;;-0.20;99.90;;;;;;4232771;28;20039;-85
2022/12/01 05:06:19;;;;;;;36.90;35.45;;;-0.30;99.90;;;;;;4227472;28;20055;-85
2022/12/01 05:08:39;;;;;;;36.92;35.42;;;-0.20;99.90;;;;;;4222798;28;20043;-85
2022/12/01 05:10:59;;;;;;;33.75;32.40;;;-0.30;99.90;;;;;;4231712;28;20069;-86
2022/12/01 05:13:18;;;;;;;37.85;36.45;;;-0.30;99.90;;;;;;4217035;28;20039;-85
2022/12/01 05:15:38;;;;;;;33.65;32.40;;;-0.20;99.90;;;;;;4230461;28;20062;-85
2022/12/01 05:17:58;;;;;;;35.42;33.92;;;-0.20;99.90;;;;;;4218643;28;20035;-85
2022/12/01 05:23:00;;;;;;;37.97;36.38;;;-0.30;99.90;;;;;;4232178;28;20038;-85
2022/12/01 05:25:34;;;;;;;35.28;34.05;;;-0.30;99.90;;;;;;4229004;28;20043;-86
2022/12/01 05:27:53;;;;;;;36.75;35.15;;;-0.30;99.90;;;;;;4215167;28;20063;-85
2022/12/01 05:30:13;;;;;;;35.25;33.85;;;-0.30;99.90;;;;;;4232338;28;20062;-85
2022/12/01 05:32:32;;;;;;;34.30;33.00;;;-0.30;99.90;;;;;;4229703;28;20041;-85
2022/12/01 05:34:52;;;;;;;37.95;36.45;;;-0.30;99.90;;;;;;4227603;28;20094;-85
2022/12/01 05:37:12;;;;;;;35.42;34.17;;;-0.30;99.90;;;;;;4221299;28;20070;-85
2022/12/01 05:39:32;;;;;;;33.45;32.13;;;-0.30;99.90;;;;;;4230253;28;20058;-85
2022/12/01 05:41:52;;;;;;;36.00;34.58;;;-0.30;99.90;;;;;;4217553;28;20051;-85
2022/12/01 05:44:12;;;;;;;37.30;36.13;;;-0.20;99.90;;;;;;4228428;28;20047;-85
2022/12/01 05:46:32;;;;;;;34.50;33.35;;;-0.20;99.90;;;;;;4230192;28;20108;-85
2022/12/01 05:48:52;;;;;;;35.75;34.50;;;-0.30;99.90;;;;;;4231305;28;20067;-85
2022/12/01 05:51:14;;;;;;;36.78;35.42;;;-0.30;99.90;;;;;;4216848;28;20047;-85
2022/12/01 05:53:34;;;;;;;36.88;35.28;;;-0.30;99.90;;;;;;4227887;28;20368;-85
2022/12/01 05:55:54;;;;;;;36.03;34.60;;;-0.20;99.90;;;;;;4217859;28;20047;-85
2022/12/01 05:58:14;;;;;;;39.40;38.00;;;-0.20;99.90;;;;;;4215960;28;20051;-85
2022/12/01 06:00:34;;;;;;;36.28;34.72;;;-0.30;99.90;;;;;;4230727;28;20046;-85
2022/12/01 06:02:54;;;;;;;35.83;34.20;;;-0.20;99.90;;;;;;4229505;28;20039;-85
2022/12/01 06:05:13;;;;;;;36.88;35.47;;;-0.20;99.90;;;;;;4232700;28;20239;-85
2022/12/01 06:07:34;;;;;;;39.03;37.42;;;-0.20;99.90;;;;;;4229908;28;20036;-85
2022/12/01 06:09:54;;;;;;;41.00;38.30;;;-0.20;99.90;;;;;;4232205;28;20078;-85
2022/12/01 06:12:14;;;;;;;42.17;40.05;;;-0.20;99.90;;;;;;4231783;28;20087;-83
2022/12/01 06:14:33;;;;;;;36.20;34.50;;;-0.20;99.90;;;;;;4218543;28;20401;-85
2022/12/01 06:16:53;;;;;;;35.88;34.30;;;-0.30;99.90;;;;;;4231330;28;20070;-85
2022/12/01 06:19:13;;;;;;;36.47;34.78;;;-0.30;99.90;;;;;;4218481;28;20046;-85
2022/12/01 06:21:33;;;;;;;37.42;35.67;;;-0.30;99.90;;;;;;4223963;28;20073;-84
2022/12/01 06:23:52;;;;;;;40.40;38.55;;;-0.30;99.90;;;;;;4219199;28;20230;-85
2022/12/01 06:26:12;;;;;;;37.60;35.80;;;-0.40;99.90;;;;;;4222438;28;20070;-85
2022/12/01 06:28:31;;;;;;;37.53;35.67;;;-0.40;99.90;;;;;;4217185;28;20038;-83
2022/12/01 06:30:51;;;;;;;38.60;37.10;;;-0.40;99.90;;;;;;4223977;28;20137;-83
2022/12/01 06:33:11;;;;;;;38.25;36.42;;;-0.40;99.90;;;;;;4231726;28;20043;-83
2022/12/01 06:35:31;;;;;;;41.63;39.50;;;-0.50;99.90;;;;;;4216731;28;20051;-84
2022/12/01 06:37:53;;;;;;;39.30;37.70;;;-0.50;99.90;;;;;;4215186;28;20037;-84
2022/12/01 06:40:13;;;;;;;41.17;38.78;;;-0.50;99.90;;;;;;4214694;28;20047;-83
2022/12/01 06:42:32;;;;;;;40.90;38.53;;;-0.50;99.90;;;;;;4212358;28;20106;-83
2022/12/01 06:44:52;;;;;;;39.60;37.75;;;-0.50;99.90;;;;;;4217994;28;20088;-84
2022/12/01 06:47:12;;;;;;;37.75;35.95;;;-0.50;99.90;;;;;;4231691;28;20039;-84
2022/12/01 06:49:33;;;;;;;37.92;36.30;;;-0.50;99.90;;;;;;4216447;28;20084;-83
2022/12/01 06:51:53;;;;;;;42.63;39.85;;;-0.40;99.90;;;;;;4226805;28;20051;-83
2022/12/01 06:54:14;;;;;;;49.08;45.88;;;-0.40;99.90;;;;;;4226806;28;20046;-83
2022/12/01 06:56:33;;;;;;;46.10;43.15;;;-0.50;99.90;;;;;;4230021;28;20236;-83
2022/12/01 06:58:53;;;;;;;46.00;43.63;;;-0.50;99.90;;;;;;4217041;28;20047;-84
2022/12/01 07:01:14;;;;;;;45.25;42.78;;;-0.50;99.90;;;;;;4217666;28;20150;-83
2022/12/01 07:03:34;;;;;;;49.17;45.95;;;-0.60;99.90;;;;;;4229538;28;20071;-83
2022/12/01 07:05:59;;;;;;;42.20;39.75;;;-0.60;99.90;;;;;;4227531;28;20073;-83
2022/12/01 07:08:19;;;;;;;48.72;45.53;;;-0.70;99.90;;;;;;4228311;28;20108;-83
2022/12/01 07:10:38;;;;;;;46.85;43.90;;;-0.80;99.90;;;;;;4218379;28;20392;-83
2022/12/01 07:12:58;;;;;;;41.35;38.88;;;-0.70;99.90;;;;;;4213173;28;20034;-83
2022/12/01 07:15:18;;;;;;;41.08;39.28;;;-0.60;99.90;;;;;;4214543;28;20370;-83
2022/12/01 07:17:38;;;;;;;37.55;35.60;;;-0.60;99.90;;;;;;4213881;28;20034;-84
2022/12/01 07:19:58;;;;;;;39.08;36.80;;;-0.50;99.90;;;;;;4215895;28;20110;-83
2022/12/01 07:22:18;;;;;;;40.72;38.22;;;-0.40;99.90;;;;;;4231621;28;20108;-83
2022/12/01 07:24:37;;;;;;;42.85;39.33;;;-0.30;99.90;;;;;;4232010;28;20161;-83
2022/12/01 07:26:57;;;;;;;29.15;27.92;;;-0.30;99.90;;;;;;4230126;28;20086;-83
2022/12/01 07:29:17;;;;;;;25.75;24.77;;;-0.10;99.90;;;;;;4216669;28;20047;-83
2022/12/01 07:31:38;;;;;;;24.92;23.92;;;0.00;99.90;;;;;;4226468;28;20318;-83
2022/12/01 07:33:57;;;;;;;35.75;34.33;;;0.10;99.90;;;;;;4216215;28;20298;-83
2022/12/01 07:36:17;;;;;;;37.45;35.70;;;0.10;99.90;;;;;;4217892;28;20042;-83
2022/12/01 07:38:38;;;;;;;38.50;36.60;;;0.20;99.90;;;;;;4219230;28;20073;-83
2022/12/01 07:41:05;;;;;;;36.63;34.83;;;0.20;99.90;;;;;;4218947;28;20401;-84
2022/12/01 07:43:25;;;;;;;39.63;37.55;;;0.20;99.90;;;;;;4216492;28;20039;-83
2022/12/01 07:45:45;;;;;;;36.17;34.05;;;0.30;99.90;;;;;;4217536;28;20052;-83
2022/12/01 07:48:05;;;;;;;40.90;38.55;;;0.30;99.90;;;;;;4221584;28;20108;-83
2022/12/01 07:50:25;;;;;;;53.42;48.58;;;0.30;99.90;;;;;;4217422;28;20044;-83
2022/12/01 07:52:49;;;;;;;52.63;47.92;;;0.20;99.90;;;;;;4216964;28;20047;-83
2022/12/01 07:55:09;;;;;;;62.58;56.03;;;0.20;99.90;;;;;;4212103;28;20239;-84
2022/12/01 07:57:29;;;;;;;67.53;60.33;;;0.20;99.90;;;;;;4229544;28;20066;-83
2022/12/01 07:59:48;;;;;;;45.03;41.90;;;0.20;99.90;;;;;;4228087;28;20086;-83
2022/12/01 08:02:09;;;;;;;38.70;36.88;;;0.30;99.90;;;;;;4217727;28;20039;-83
2022/12/01 08:04:29;;;;;;;40.53;37.83;;;0.40;99.90;;;;;;4216591;28;20109;-83
2022/12/01 08:06:49;;;;;;;38.47;35.75;;;0.40;99.90;;;;;;4229659;28;20102;-86
2022/12/01 08:09:09;;;;;;;31.95;30.02;;;0.50;99.90;;;;;;4222104;28;20061;-86
2022/12/01 08:11:28;;;;;;;27.27;25.83;;;0.50;99.90;;;;;;4216279;28;20056;-86
2022/12/01 08:13:50;;;;;;;27.98;26.52;;;0.50;99.90;;;;;;4229605;28;20111;-86
2022/12/01 08:16:13;;;;;;;24.98;23.67;;;0.60;99.90;;;;;;4211911;28;20062;-85
2022/12/01 08:18:38;;;;;;;18.73;17.52;;;0.70;99.90;;;;;;4230807;28;20050;-85
2022/12/01 08:20:58;;;;;;;19.33;18.13;;;0.70;99.90;;;;;;4228323;28;20042;-85
2022/12/01 08:23:18;;;;;;;16.42;15.32;;;0.80;99.90;;;;;;4215495;28;20047;-85
2022/12/01 08:25:38;;;;;;;17.75;16.65;;;0.90;99.90;;;;;;4215634;28;20055;-85
2022/12/01 08:27:59;;;;;;;12.70;12.07;;;1.00;99.90;;;;;;4225663;28;20047;-85
2022/12/01 08:30:20;;;;;;;13.48;12.70;;;1.00;99.90;;;;;;4215811;28;20050;-85
2022/12/01 08:32:40;;;;;;;12.88;12.20;;;1.10;99.90;;;;;;4214795;28;20044;-85
2022/12/01 08:35:00;;;;;;;11.23;10.70;;;1.20;99.90;;;;;;4216658;28;20123;-85
2022/12/01 08:37:19;;;;;;;11.75;11.25;;;1.30;99.90;;;;;;4232180;28;20039;-85
2022/12/01 08:39:39;;;;;;;10.55;10.32;;;1.40;99.90;;;;;;4227513;28;20058;-85
2022/12/01 08:41:59;;;;;;;12.45;11.75;;;1.40;99.90;;;;;;4229476;28;20341;-85
2022/12/01 08:44:19;;;;;;;16.90;15.60;;;1.50;99.90;;;;;;4231769;28;20089;-85
2022/12/01 08:46:39;;;;;;;14.60;13.45;;;1.50;99.90;;;;;;4232930;28;20051;-85
2022/12/01 08:49:00;;;;;;;12.25;11.65;;;1.60;99.90;;;;;;4231237;28;20171;-85
2022/12/01 08:51:20;;;;;;;25.50;19.95;;;1.60;99.90;;;;;;4232864;28;20058;-85
2022/12/01 08:53:43;;;;;;;39.05;26.50;;;1.70;99.90;;;;;;4229474;28;20093;-85
2022/12/01 08:56:09;;;;;;;19.48;15.60;;;1.90;99.90;;;;;;4233802;28;20056;-85
2022/12/01 08:58:29;;;;;;;14.05;13.15;;;2.00;99.90;;;;;;4229079;28;20093;-85
2022/12/01 09:00:49;;;;;;;16.52;15.18;;;2.30;99.90;;;;;;4229166;28;20286;-85
2022/12/01 09:03:09;;;;;;;14.75;13.55;;;2.50;99.90;;;;;;4217637;28;20051;-85
2022/12/01 09:05:29;;;;;;;15.85;14.75;;;2.80;99.90;;;;;;4217231;28;20085;-85
2022/12/01 09:08:30;;;;;;;16.95;15.55;;;2.90;99.90;;;;;;4216724;28;20239;-85
2022/12/01 09:10:29;;;;;;;18.10;16.60;;;2.90;99.90;;;;;;4233600;28;20047;-85
2022/12/01 09:12:48;;;;;;;15.10;14.00;;;3.00;99.90;;;;;;4216022;28;20051;-86
2022/12/01 09:15:08;;;;;;;17.40;15.90;;;3.00;99.90;;;;;;4217084;28;20277;-85
2022/12/01 09:17:28;;;;;;;20.27;18.13;;;3.00;99.90;;;;;;4227670;28;20295;-86
2022/12/01 09:19:48;;;;;;;15.20;14.00;;;3.10;99.90;;;;;;4231091;28;20284;-86
2022/12/01 09:22:09;;;;;;;13.63;12.73;;;3.20;99.90;;;;;;4213947;28;20112;-86
2022/12/01 09:24:29;;;;;;;19.38;17.38;;;3.30;99.90;;;;;;4230430;28;20103;-86
2022/12/01 09:26:49;;;;;;;19.30;17.48;;;3.40;99.90;;;;;;4231161;28;20051;-86
2022/12/01 09:29:12;;;;;;;19.02;17.52;;;3.70;99.90;;;;;;4229883;28;20035;-86
2022/12/01 09:31:32;;;;;;;;;;;3.80;99.90;;;;;;4215774;28;20051;-86
2022/12/01 09:33:58;;;;;;;22.67;19.25;;;3.90;99.90;;;;;;4231219;28;19954;-86
2022/12/01 09:36:18;;;;;;;21.15;19.20;;;4.00;99.90;;;;;;4214188;28;20062;-86
2022/12/01 09:38:38;;;;;;;19.38;17.48;;;4.00;99.90;;;;;;4216716;28;20040;-86
2022/12/01 09:41:06;;;;;;;17.33;16.05;;;4.10;99.90;;;;;;4230304;28;20113;-86
2022/12/01 09:43:32;;;;;;;15.13;14.13;;;4.20;99.90;;;;;;4228764;28;20039;-86
2022/12/01 09:46:06;;;;;;;13.10;10.90;;;4.30;99.90;;;;;;4215631;28;20108;-86
2022/12/01 09:48:33;;;;;;;11.88;11.23;;;4.60;99.90;;;;;;4233144;28;20361;-86
2022/12/01 09:50:54;;;;;;;12.25;11.55;;;4.70;99.90;;;;;;4231592;28;20041;-86
2022/12/01 09:53:20;;;;;;;11.45;10.43;;;5.00;99.90;;;;;;4230597;28;20039;-86
2022/12/01 09:55:39;;;;;;;11.68;10.93;;;5.40;99.90;;;;;;4212173;28;20111;-86
2022/12/01 09:58:01;;;;;;;13.20;12.40;;;5.60;99.90;;;;;;4220062;28;20079;-86
2022/12/01 10:00:24;;;;;;;13.75;12.88;;;5.70;99.90;;;;;;4219356;28;20051;-86
2022/12/01 10:03:25;;;;;;;12.68;11.70;;;5.80;99.90;;;;;;4214562;28;20424;-86
2022/12/01 10:05:50;;;;;;;12.85;11.98;;;5.90;99.90;;;;;;4204546;28;20055;-86
2022/12/01 10:08:35;;;;;;;14.15;12.95;;;6.30;99.90;;;;;;4233080;28;20042;-86
2022/12/01 10:11:31;;;;;;;13.13;12.23;;;6.40;99.90;;;;;;4216953;28;20043;-86
2022/12/01 10:13:50;;;;;;;16.55;15.10;;;6.40;99.90;;;;;;4207801;28;20052;-86
2022/12/01 10:16:14;;;;;;;12.30;11.50;;;6.40;99.90;;;;;;4216689;28;20190;-86
2022/12/01 10:18:37;;;;;;;10.80;10.30;;;6.50;99.90;;;;;;4216880;28;20036;-86
2022/12/01 10:21:10;;;;;;;10.75;10.13;;;6.60;99.90;;;;;;4230974;28;20095;-87
2022/12/01 10:23:38;;;;;;;11.20;10.43;;;6.70;99.90;;;;;;4230215;28;20043;-86
2022/12/01 10:26:08;;;;;;;8.20;7.78;;;6.70;99.90;;;;;;4223150;28;20376;-86
2022/12/01 10:28:57;;;;;;;7.32;7.22;;;6.80;99.90;;;;;;4217527;28;20119;-86
2022/12/01 10:31:38;;;;;;;7.35;7.15;;;6.90;99.90;;;;;;4228156;28;20396;-86
2022/12/01 10:34:10;;;;;;;5.57;5.47;;;7.00;99.90;;;;;;4217525;28;20040;-86
2022/12/01 10:36:31;;;;;;;6.63;6.30;;;6.90;99.90;;;;;;4232283;28;20145;-86
2022/12/01 10:38:51;;;;;;;5.05;4.45;;;6.90;99.90;;;;;;4228366;28;20389;-86
2022/12/01 10:41:14;;;;;;;6.82;6.63;;;6.90;99.90;;;;;;4230031;28;20108;-87
2022/12/01 10:43:43;;;;;;;14.98;13.85;;;7.00;99.90;;;;;;4214422;28;20112;-86
2022/12/01 10:46:17;;;;;;;6.00;5.80;;;7.00;99.90;;;;;;4230073;28;20041;-86
2022/12/01 10:48:52;;;;;;;8.65;8.27;;;7.00;99.90;;;;;;4230791;28;20432;-86
2022/12/01 10:51:18;;;;;;;10.00;9.30;;;7.10;99.90;;;;;;4214362;28;20081;-86
2022/12/01 10:53:37;;;;;;;5.78;5.53;;;7.20;99.90;;;;;;4231126;28;20039;-86
2022/12/01 10:56:08;;;;;;;5.40;5.30;;;7.50;99.90;;;;;;4234390;28;20058;-86
2022/12/01 10:58:32;;;;;;;5.00;4.90;;;7.50;99.90;;;;;;4223735;28;20051;-86
2022/12/01 11:01:02;;;;;;;4.03;3.92;;;7.60;99.90;;;;;;4233133;28;20361;-86
2022/12/01 11:03:26;;;;;;;3.70;3.60;;;7.70;99.90;;;;;;4226123;28;20153;-87
2022/12/01 11:05:56;;;;;;;3.22;3.13;;;7.70;99.90;;;;;;4231701;28;20145;-87
2022/12/01 11:08:40;;;;;;;3.58;3.58;;;7.70;99.90;;;;;;4228353;28;20059;-86
2022/12/01 11:11:00;;;;;;;3.78;3.67;;;7.60;99.90;;;;;;4228948;28;20080;-84
2022/12/01 11:13:30;;;;;;;3.53;3.42;;;7.70;99.90;;;;;;4231127;28;20042;-84
2022/12/01 11:15:55;;;;;;;5.13;5.03;;;7.80;99.90;;;;;;4223185;28;20039;-84
2022/12/01 11:18:28;;;;;;;4.30;4.20;;;7.70;99.90;;;;;;4215190;28;20075;-84
2022/12/01 11:21:25;;;;;;;4.97;4.78;;;7.60;99.90;;;;;;4229656;28;20116;-84
2022/12/01 11:23:47;;;;;;;3.78;3.78;;;7.70;99.90;;;;;;4215882;28;20067;-84
2022/12/01 11:26:15;;;;;;;4.13;3.92;;;7.80;99.90;;;;;;4215856;28;20056;-84
2022/12/01 11:28:50;;;;;;;6.22;6.13;;;7.70;99.90;;;;;;4228473;28;20385;-84
2022/12/01 11:31:11;;;;;;;5.65;5.55;;;7.70;99.90;;;;;;4226481;28;20042;-84
2022/12/01 11:33:41;;;;;;;4.22;4.13;;;7.80;99.90;;;;;;4228121;28;20231;-84
2022/12/01 11:36:01;;;;;;;5.78;5.35;;;7.70;99.90;;;;;;4232743;28;20051;-84
2022/12/01 11:38:23;;;;;;;5.43;5.32;;;7.80;99.90;;;;;;4222697;28;20738;-84
2022/12/01 11:40:56;;;;;;;6.07;5.88;;;7.90;99.90;;;;;;4222307;28;20042;-84
2022/12/01 11:43:29;;;;;;;6.97;6.78;;;7.90;99.90;;;;;;4231230;28;20093;-84
2022/12/01 11:45:49;;;;;;;8.27;7.88;;;7.70;99.90;;;;;;4234178;28;20038;-84
2022/12/01 11:48:14;;;;;;;5.22;5.13;;;7.70;99.90;;;;;;4225421;28;20104;-84
2022/12/01 11:50:40;;;;;;;4.60;4.50;;;7.70;99.90;;;;;;4229193;28;20399;-85
2022/12/01 11:53:01;;;;;;;4.53;4.43;;;7.80;99.90;;;;;;4227346;28;20096;-84
2022/12/01 11:55:26;;;;;;;7.90;7.60;;;8.00;99.90;;;;;;4220454;28;20239;-84
2022/12/01 11:57:52;;;;;;;8.85;8.48;;;8.00;99.90;;;;;;4225264;28;20102;-85
2022/12/01 12:00:21;;;;;;;4.72;4.57;;;8.20;99.90;;;;;;4231506;28;20120;-84
2022/12/01 12:03:17;;;;;;;4.05;3.95;;;8.40;99.90;;;;;;4229612;28;20089;-84
2022/12/01 12:05:47;;;;;;;4.47;4.38;;;8.50;99.90;;;;;;4227367;28;20370;-84
2022/12/01 12:08:37;;;;;;;5.93;5.72;;;8.60;99.90;;;;;;4230054;28;20072;-84
2022/12/01 12:11:16;;;;;;;7.70;4.78;;;8.70;99.90;;;;;;4228473;28;20077;-84
2022/12/01 12:14:01;;;;;;;4.32;4.22;;;8.60;99.90;;;;;;4232054;28;20043;-84
2022/12/01 12:16:40;;;;;;;6.13;6.03;;;8.50;99.90;;;;;;4222164;28;20059;-84
2022/12/01 12:19:52;;;;;;;5.65;5.45;;;8.50;99.90;;;;;;4229079;28;20234;-84
2022/12/01 12:23:08;;;;;;;4.13;3.95;;;8.40;99.90;;;;;;4166280;28;20107;-84
2022/12/01 12:25:55;;;;;;;6.90;6.70;;;8.50;99.90;;;;;;4151459;28;20045;-84
2022/12/01 12:28:15;;;;;;;5.88;5.78;;;8.70;99.90;;;;;;4216120;28;20113;-84
2022/12/01 12:30:57;;;;;;;4.55;4.28;;;8.80;99.90;;;;;;4230510;28;20059;-84